Time;durP1;ratioP1;P1;durP2;ratioP2;P2;SDS_P1;SDS_P2;PMS_P1;PMS_P2;Temp;Humidity;BMP_temperature;BMP_pressure;BME280_temperature;BME280_humidity;BME280_pressure;Samples;Min_cycle;Max_cycle;Signal;HPM_P1;HPM_P2
2021/11/27 00:00:00;;;;;;;6.60;2.63;;;3.20;99.90;;;;;;5022037;28;20806;-72
2021/11/27 00:02:26;;;;;;;5.90;3.70;;;3.20;99.90;;;;;;5025700;28;20152;-71
2021/11/27 00:04:52;;;;;;;3.43;3.10;;;3.20;99.90;;;;;;5042555;28;20418;-71
2021/11/27 00:07:17;;;;;;;4.83;3.30;;;3.20;99.90;;;;;;5038632;28;20202;-71
2021/11/27 00:09:43;;;;;;;7.63;2.90;;;3.20;99.90;;;;;;5033135;28;20172;-69
2021/11/27 00:12:09;;;;;;;4.27;3.43;;;3.20;99.90;;;;;;5033504;28;20209;-69
2021/11/27 00:14:35;;;;;;;5.20;3.67;;;3.20;99.90;;;;;;5032684;28;20175;-69
2021/11/27 00:17:03;;;;;;;4.70;3.23;;;3.20;99.90;;;;;;5032708;28;20257;-68
2021/11/27 00:19:28;;;;;;;4.80;4.33;;;3.20;99.90;;;;;;5031641;28;20479;-69
2021/11/27 00:21:54;;;;;;;5.00;2.60;;;3.20;99.90;;;;;;5032630;28;20430;-69
2021/11/27 00:24:20;;;;;;;7.57;3.00;;;3.20;99.90;;;;;;5032551;28;20614;-69
2021/11/27 00:26:45;;;;;;;3.27;2.97;;;3.20;99.90;;;;;;5032381;28;20187;-70
2021/11/27 00:29:11;;;;;;;3.13;2.60;;;3.10;99.90;;;;;;5032070;28;20171;-70
2021/11/27 00:31:41;;;;;;;8.20;2.53;;;3.10;99.90;;;;;;5032382;28;20634;-68
2021/11/27 00:34:07;;;;;;;5.43;4.03;;;3.10;99.90;;;;;;5032229;28;20172;-70
2021/11/27 00:36:33;;;;;;;4.83;4.17;;;3.10;99.90;;;;;;5031786;28;20454;-70
2021/11/27 00:38:59;;;;;;;2.43;2.20;;;3.10;99.90;;;;;;5031035;28;20414;-70
2021/11/27 00:41:25;;;;;;;3.70;3.20;;;3.10;99.90;;;;;;5025372;28;20585;-69
2021/11/27 00:43:51;;;;;;;5.47;3.40;;;3.10;99.90;;;;;;5023785;28;20492;-68
2021/11/27 00:46:17;;;;;;;2.83;2.33;;;3.20;99.90;;;;;;5032108;28;20430;-70
2021/11/27 00:48:43;;;;;;;6.17;3.60;;;3.10;99.90;;;;;;5032040;28;20461;-70
2021/11/27 00:51:13;;;;;;;5.27;3.50;;;3.10;99.90;;;;;;5031867;28;20406;-70
2021/11/27 00:53:39;;;;;;;7.10;4.00;;;3.10;99.90;;;;;;5031941;28;20175;-71
2021/11/27 00:56:06;;;;;;;5.27;3.20;;;3.10;99.90;;;;;;5030188;28;20434;-70
2021/11/27 00:58:32;;;;;;;3.00;2.67;;;3.10;99.90;;;;;;5031419;28;20466;-71
2021/11/27 01:01:03;;;;;;;4.77;3.03;;;3.10;99.90;;;;;;5031498;28;20456;-70
2021/11/27 01:03:32;;;;;;;13.33;3.33;;;3.00;99.90;;;;;;5031923;28;20529;-69
2021/11/27 01:06:01;;;;;;;4.30;3.17;;;3.00;99.90;;;;;;5031376;28;20426;-70
2021/11/27 01:08:27;;;;;;;5.73;3.13;;;3.00;99.90;;;;;;5031733;28;20448;-70
2021/11/27 01:11:01;;;;;;;3.47;3.20;;;3.00;99.90;;;;;;5031489;28;20402;-70
2021/11/27 01:13:27;;;;;;;3.63;3.33;;;2.90;99.90;;;;;;5031683;28;20410;-69
2021/11/27 01:15:53;;;;;;;8.53;5.23;;;2.90;99.90;;;;;;5031886;28;20928;-70
2021/11/27 01:18:19;;;;;;;6.83;5.20;;;2.80;99.90;;;;;;5031971;28;20473;-71
2021/11/27 01:20:51;;;;;;;5.40;4.90;;;2.80;99.90;;;;;;5031848;28;20890;-70
2021/11/27 01:23:17;;;;;;;3.13;2.30;;;2.70;99.90;;;;;;5031850;28;20221;-71
2021/11/27 01:25:44;;;;;;;3.57;3.10;;;2.70;99.90;;;;;;5031563;28;20491;-71
2021/11/27 01:28:11;;;;;;;5.47;3.10;;;2.70;99.90;;;;;;5031739;28;20438;-69
2021/11/27 01:30:37;;;;;;;4.40;4.00;;;2.60;99.90;;;;;;5031349;28;20409;-70
2021/11/27 01:33:03;;;;;;;7.80;4.40;;;2.60;99.90;;;;;;5031441;28;20406;-70
2021/11/27 01:35:28;;;;;;;8.70;3.93;;;2.60;99.90;;;;;;5031380;28;20517;-69
2021/11/27 01:37:54;;;;;;;2.87;2.07;;;2.60;99.90;;;;;;5031258;28;20611;-70
2021/11/27 01:40:24;;;;;;;2.40;2.20;;;2.50;99.90;;;;;;5031460;28;20175;-70
2021/11/27 01:42:51;;;;;;;8.17;4.53;;;2.50;99.90;;;;;;5030118;28;20411;-70
2021/11/27 01:45:18;;;;;;;4.30;3.57;;;2.40;99.90;;;;;;5031270;28;20403;-70
2021/11/27 01:47:51;;;;;;;3.57;3.27;;;2.40;99.90;;;;;;5031757;28;20417;-70
2021/11/27 01:50:17;;;;;;;4.37;2.80;;;2.30;99.90;;;;;;5035157;28;20413;-71
2021/11/27 01:52:42;;;;;;;2.83;2.60;;;2.30;99.90;;;;;;5035498;28;20910;-70
2021/11/27 01:55:09;;;;;;;4.40;3.50;;;2.20;99.90;;;;;;5035427;28;20195;-70
2021/11/27 01:57:35;;;;;;;5.70;2.73;;;2.20;99.90;;;;;;5035109;28;20211;-70
2021/11/27 02:00:00;;;;;;;4.97;3.97;;;2.20;99.90;;;;;;5035099;28;20438;-70
2021/11/27 02:02:27;;;;;;;3.60;3.30;;;2.10;99.90;;;;;;5035277;28;20465;-71
2021/11/27 02:04:52;;;;;;;5.10;2.70;;;2.10;99.90;;;;;;5034983;28;20532;-69
2021/11/27 02:07:18;;;;;;;3.10;2.23;;;2.10;99.90;;;;;;5034839;28;20430;-71
2021/11/27 02:09:44;;;;;;;2.50;2.23;;;2.10;99.90;;;;;;5034940;28;20406;-71
2021/11/27 02:12:12;;;;;;;3.83;3.20;;;2.10;99.90;;;;;;5034871;28;20207;-71
2021/11/27 02:14:38;;;;;;;5.10;4.33;;;2.00;99.90;;;;;;5034891;28;20411;-70
2021/11/27 02:17:05;;;;;;;7.80;3.57;;;2.00;99.90;;;;;;5034843;28;20515;-70
2021/11/27 02:19:30;;;;;;;4.53;3.17;;;1.90;99.90;;;;;;5034681;28;20579;-70
2021/11/27 02:21:56;;;;;;;4.93;2.73;;;1.90;99.90;;;;;;5034873;28;20505;-70
2021/11/27 02:24:23;;;;;;;5.73;4.27;;;1.90;99.90;;;;;;5034773;28;20183;-70
2021/11/27 02:26:49;;;;;;;3.47;2.90;;;1.90;99.90;;;;;;5034559;28;20438;-70
2021/11/27 02:29:22;;;;;;;4.70;2.97;;;1.90;99.90;;;;;;5034791;28;20414;-70
2021/11/27 02:31:48;;;;;;;6.10;4.23;;;1.90;99.90;;;;;;5035050;28;20464;-70
2021/11/27 02:34:14;;;;;;;7.47;4.00;;;1.90;99.90;;;;;;5034553;28;20493;-71
2021/11/27 02:36:46;;;;;;;6.40;2.80;;;1.90;99.90;;;;;;5034326;28;20292;-70
2021/11/27 02:39:12;;;;;;;4.30;4.00;;;1.80;99.90;;;;;;5034426;28;21011;-70
2021/11/27 02:41:39;;;;;;;3.43;2.63;;;1.80;99.90;;;;;;5034234;28;20460;-70
2021/11/27 02:44:07;;;;;;;7.13;4.07;;;1.80;99.90;;;;;;5034388;28;20410;-70
2021/11/27 02:46:32;;;;;;;6.57;3.47;;;1.80;99.90;;;;;;5034146;28;20486;-70
2021/11/27 02:48:58;;;;;;;6.77;3.07;;;1.80;99.90;;;;;;5034351;28;20419;-70
2021/11/27 02:51:24;;;;;;;4.10;3.03;;;1.80;99.90;;;;;;5034170;28;20175;-70
2021/11/27 02:53:50;;;;;;;5.10;3.63;;;1.70;99.90;;;;;;5034154;28;20255;-69
2021/11/27 02:56:15;;;;;;;4.07;3.67;;;1.70;99.90;;;;;;5033790;28;20191;-70
2021/11/27 02:58:41;;;;;;;3.57;3.27;;;1.70;99.90;;;;;;5032608;28;20175;-69
2021/11/27 03:01:08;;;;;;;5.30;3.90;;;1.70;99.90;;;;;;5033898;28;20523;-69
2021/11/27 03:03:36;;;;;;;1.87;1.73;;;1.80;99.90;;;;;;5034060;28;20176;-68
2021/11/27 03:06:03;;;;;;;3.43;2.20;;;1.80;99.90;;;;;;5033883;28;20430;-70
2021/11/27 03:08:29;;;;;;;5.07;3.83;;;1.80;99.90;;;;;;5033807;28;20501;-70
2021/11/27 03:10:55;;;;;;;2.80;2.37;;;1.90;99.90;;;;;;5032463;28;20442;-69
2021/11/27 03:13:34;;;;;;;5.20;4.10;;;1.90;99.90;;;;;;5033690;28;20172;-69
2021/11/27 03:16:00;;;;;;;3.77;3.00;;;1.90;99.90;;;;;;5033650;28;20194;-70
2021/11/27 03:18:26;;;;;;;3.77;3.30;;;1.80;99.90;;;;;;5033544;28;20461;-68
2021/11/27 03:20:52;;;;;;;3.17;2.80;;;1.80;99.90;;;;;;5034004;28;20417;-70
2021/11/27 03:23:19;;;;;;;3.40;3.20;;;1.80;99.90;;;;;;5033594;28;20414;-70
2021/11/27 03:25:45;;;;;;;5.40;4.63;;;1.80;99.90;;;;;;5033331;28;20437;-70
2021/11/27 03:28:11;;;;;;;5.83;3.60;;;1.70;99.90;;;;;;5033613;28;20414;-70
2021/11/27 03:30:37;;;;;;;8.23;4.30;;;1.70;99.90;;;;;;5033468;28;20206;-70
2021/11/27 03:33:03;;;;;;;5.37;3.63;;;1.70;99.90;;;;;;5033504;28;20443;-69
2021/11/27 03:35:29;;;;;;;4.20;2.90;;;1.70;99.90;;;;;;5033218;28;20948;-69
2021/11/27 03:37:55;;;;;;;5.70;5.20;;;1.70;99.90;;;;;;5033740;28;20586;-72
2021/11/27 03:40:21;;;;;;;4.60;2.97;;;1.60;99.90;;;;;;5033093;28;20410;-70
2021/11/27 03:42:47;;;;;;;4.30;3.13;;;1.60;99.90;;;;;;5033172;28;20163;-70
2021/11/27 03:45:18;;;;;;;2.27;2.10;;;1.60;99.90;;;;;;5033116;28;20441;-70
2021/11/27 03:48:14;;;;;;;2.90;2.07;;;1.50;99.90;;;;;;5033059;28;20218;-69
2021/11/27 03:50:51;;;;;;;2.80;2.60;;;1.50;99.90;;;;;;5033154;28;20434;-70
2021/11/27 03:53:21;;;;;;;2.80;2.30;;;1.50;99.90;;;;;;5033079;28;20416;-71
2021/11/27 03:55:46;;;;;;;5.87;4.53;;;1.50;99.90;;;;;;5032832;28;20437;-69
2021/11/27 03:58:12;;;;;;;8.20;4.10;;;1.50;99.90;;;;;;5033016;28;20454;-70
2021/11/27 04:00:38;;;;;;;5.20;4.17;;;1.50;99.90;;;;;;5032991;28;20190;-70
2021/11/27 04:03:07;;;;;;;9.23;3.30;;;1.50;99.90;;;;;;5033019;28;20631;-70
2021/11/27 04:05:39;;;;;;;4.20;2.60;;;1.50;99.90;;;;;;5033484;28;20800;-70
2021/11/27 04:08:05;;;;;;;4.03;3.67;;;1.40;99.90;;;;;;5033045;28;20455;-70
2021/11/27 04:10:30;;;;;;;2.93;2.63;;;1.40;99.90;;;;;;5032268;28;20410;-70
2021/11/27 04:12:56;;;;;;;2.57;2.40;;;1.40;99.90;;;;;;5033526;28;20226;-70
2021/11/27 04:15:22;;;;;;;3.50;2.60;;;1.40;99.90;;;;;;5032695;28;20678;-70
2021/11/27 04:17:49;;;;;;;4.60;2.23;;;1.40;99.90;;;;;;5032590;28;20206;-71
2021/11/27 04:20:15;;;;;;;2.20;2.00;;;1.40;99.90;;;;;;5032915;28;20410;-70
2021/11/27 04:22:42;;;;;;;3.97;2.57;;;1.50;99.90;;;;;;5032648;28;20402;-70
2021/11/27 04:25:08;;;;;;;3.93;3.63;;;1.50;99.90;;;;;;5031057;28;20446;-70
2021/11/27 04:27:34;;;;;;;4.20;3.10;;;1.50;99.90;;;;;;5032484;28;20417;-69
2021/11/27 04:30:00;;;;;;;5.93;4.40;;;1.60;99.90;;;;;;5032354;28;20525;-70
2021/11/27 04:32:26;;;;;;;5.10;3.80;;;1.60;99.90;;;;;;5032290;28;20410;-70
2021/11/27 04:34:51;;;;;;;3.73;2.30;;;1.60;99.90;;;;;;5032227;28;20176;-69
2021/11/27 04:37:17;;;;;;;7.93;4.13;;;1.70;99.90;;;;;;5032075;28;20243;-69
2021/11/27 04:39:44;;;;;;;2.70;2.50;;;1.70;99.90;;;;;;5032216;28;20172;-69
2021/11/27 04:42:09;;;;;;;4.50;2.17;;;1.70;99.90;;;;;;5032187;28;20254;-70
2021/11/27 04:44:35;;;;;;;2.73;2.23;;;1.70;99.90;;;;;;5032107;28;20485;-69
2021/11/27 04:47:00;;;;;;;4.93;3.37;;;1.80;99.90;;;;;;5031996;28;20308;-70
2021/11/27 04:49:26;;;;;;;5.17;3.30;;;1.80;99.90;;;;;;5032174;28;20190;-69
2021/11/27 04:51:52;;;;;;;3.73;2.53;;;1.80;99.90;;;;;;5031933;28;20540;-70
2021/11/27 04:54:18;;;;;;;2.07;1.97;;;1.90;99.90;;;;;;5031896;28;20489;-69
2021/11/27 04:56:43;;;;;;;8.63;3.17;;;1.80;99.90;;;;;;5031707;28;20690;-72
2021/11/27 04:59:09;;;;;;;4.10;3.20;;;1.80;99.90;;;;;;5031989;28;20653;-71
2021/11/27 05:01:35;;;;;;;2.40;2.20;;;1.90;99.90;;;;;;5031761;28;20271;-70
2021/11/27 05:04:00;;;;;;;5.37;3.77;;;1.90;99.90;;;;;;5031944;28;20179;-69
2021/11/27 05:06:27;;;;;;;3.37;2.50;;;1.90;99.90;;;;;;5032022;28;20206;-69
2021/11/27 05:08:53;;;;;;;2.67;2.47;;;2.00;99.90;;;;;;5032105;28;20399;-69
2021/11/27 05:11:18;;;;;;;4.27;3.70;;;1.90;99.90;;;;;;5031862;28;20406;-70
2021/11/27 05:13:44;;;;;;;8.17;3.33;;;1.90;99.90;;;;;;5032051;28;20168;-70
2021/11/27 05:16:10;;;;;;;8.27;4.83;;;2.00;99.90;;;;;;5032590;28;20202;-71
2021/11/27 05:18:36;;;;;;;4.33;2.73;;;2.00;99.90;;;;;;5032385;28;20235;-71
2021/11/27 05:21:03;;;;;;;3.43;2.03;;;2.00;99.90;;;;;;5032272;28;20178;-71
2021/11/27 05:23:28;;;;;;;6.90;3.30;;;2.00;99.90;;;;;;5036100;28;20505;-70
2021/11/27 05:25:54;;;;;;;11.80;3.47;;;2.00;99.90;;;;;;5036479;28;20473;-70
2021/11/27 05:28:20;;;;;;;6.50;4.37;;;2.10;99.90;;;;;;5036756;28;20176;-70
2021/11/27 05:30:47;;;;;;;8.10;4.27;;;2.10;99.90;;;;;;5041442;28;20213;-71
2021/11/27 05:33:15;;;;;;;3.80;3.50;;;2.10;99.90;;;;;;5044589;28;20432;-71
2021/11/27 05:35:41;;;;;;;3.80;3.50;;;2.10;99.90;;;;;;5044392;28;20434;-71
2021/11/27 05:38:09;;;;;;;7.43;4.47;;;2.10;99.90;;;;;;5044263;28;20476;-70
2021/11/27 05:40:36;;;;;;;3.00;2.40;;;2.10;99.90;;;;;;5035679;28;20437;-69
2021/11/27 05:43:02;;;;;;;10.93;2.87;;;2.10;99.90;;;;;;5036383;28;20402;-70
2021/11/27 05:45:29;;;;;;;4.73;4.00;;;2.10;99.90;;;;;;5035825;28;20428;-70
2021/11/27 05:47:57;;;;;;;4.93;3.43;;;2.10;99.90;;;;;;5035752;28;20932;-70
2021/11/27 05:50:24;;;;;;;5.43;3.50;;;2.10;99.90;;;;;;5035404;28;20407;-70
2021/11/27 05:52:51;;;;;;;5.00;3.93;;;2.10;99.90;;;;;;5035409;28;20932;-70
2021/11/27 05:55:16;;;;;;;4.27;2.43;;;2.00;99.90;;;;;;5033771;28;20839;-71
2021/11/27 05:57:42;;;;;;;5.43;3.10;;;2.00;99.90;;;;;;5035050;28;20460;-69
2021/11/27 06:00:08;;;;;;;3.63;3.33;;;2.00;99.90;;;;;;5035150;28;20172;-70
2021/11/27 06:02:34;;;;;;;13.40;5.20;;;2.00;99.90;;;;;;5035248;28;20159;-69
2021/11/27 06:04:59;;;;;;;10.23;3.63;;;2.00;99.90;;;;;;5035039;28;20405;-70
2021/11/27 06:07:25;;;;;;;6.90;3.50;;;2.00;99.90;;;;;;5034792;28;20236;-69
2021/11/27 06:09:51;;;;;;;13.13;4.97;;;2.00;99.90;;;;;;5034998;28;20167;-70
2021/11/27 06:12:16;;;;;;;9.93;2.97;;;2.00;99.90;;;;;;5034920;28;20728;-69
2021/11/27 06:14:42;;;;;;;2.73;2.53;;;2.00;99.90;;;;;;5034756;28;20171;-70
2021/11/27 06:17:08;;;;;;;10.30;4.20;;;1.90;99.90;;;;;;5034905;28;20282;-72
2021/11/27 06:19:34;;;;;;;6.43;4.13;;;1.90;99.90;;;;;;5034812;28;20176;-70
2021/11/27 06:21:59;;;;;;;5.83;3.30;;;1.90;99.90;;;;;;5034742;28;20642;-69
2021/11/27 06:24:25;;;;;;;4.03;3.53;;;2.00;99.90;;;;;;5034721;28;20405;-70
2021/11/27 06:26:50;;;;;;;4.20;3.13;;;1.90;99.90;;;;;;5034480;28;20183;-70
2021/11/27 06:29:17;;;;;;;5.07;4.60;;;1.90;99.90;;;;;;5034680;28;20195;-69
2021/11/27 06:31:42;;;;;;;15.33;5.20;;;1.90;99.90;;;;;;5034615;28;20212;-69
2021/11/27 06:34:08;;;;;;;6.30;4.33;;;1.90;99.90;;;;;;5033818;28;20445;-69
2021/11/27 06:36:33;;;;;;;5.90;3.93;;;1.90;99.90;;;;;;5034260;28;20219;-71
2021/11/27 06:38:59;;;;;;;2.93;2.70;;;1.90;99.90;;;;;;5034926;28;20167;-71
2021/11/27 06:41:25;;;;;;;7.27;3.77;;;1.90;99.90;;;;;;5034512;28;20199;-70
2021/11/27 06:43:50;;;;;;;4.47;3.63;;;1.90;99.90;;;;;;5034580;28;20174;-70
2021/11/27 06:46:16;;;;;;;5.53;3.17;;;1.90;99.90;;;;;;5034539;28;20188;-70
2021/11/27 06:48:42;;;;;;;6.83;5.23;;;1.90;99.90;;;;;;5033265;28;20210;-70
2021/11/27 06:51:07;;;;;;;7.90;4.70;;;1.90;99.90;;;;;;5034312;28;20183;-69
2021/11/27 06:53:33;;;;;;;5.97;3.57;;;1.90;99.90;;;;;;5034197;28;20163;-70
2021/11/27 06:55:59;;;;;;;6.10;5.47;;;2.00;99.90;;;;;;5033974;28;20195;-70
2021/11/27 06:58:25;;;;;;;6.30;3.27;;;2.00;99.90;;;;;;5034123;28;20203;-70
2021/11/27 07:00:51;;;;;;;7.60;4.67;;;2.00;99.90;;;;;;5033910;28;20402;-69
2021/11/27 07:03:17;;;;;;;9.60;5.00;;;2.00;99.90;;;;;;5032758;28;20164;-70
2021/11/27 07:05:42;;;;;;;11.63;5.40;;;2.10;99.90;;;;;;5034051;28;20790;-71
2021/11/27 07:08:08;;;;;;;5.80;3.93;;;2.10;99.90;;;;;;5033990;28;20250;-70
2021/11/27 07:10:34;;;;;;;6.10;4.77;;;2.10;99.90;;;;;;5033989;28;20169;-70
2021/11/27 07:13:01;;;;;;;5.33;4.57;;;2.10;99.90;;;;;;5033950;28;20174;-70
2021/11/27 07:15:27;;;;;;;8.63;5.10;;;2.20;99.90;;;;;;5033895;28;20545;-72
2021/11/27 07:17:53;;;;;;;6.07;4.73;;;2.20;99.90;;;;;;5033635;28;20449;-71
2021/11/27 07:20:19;;;;;;;4.20;3.80;;;2.20;99.90;;;;;;5033669;28;20795;-70
2021/11/27 07:22:45;;;;;;;6.67;4.10;;;2.30;99.90;;;;;;5033959;28;20399;-71
2021/11/27 07:25:10;;;;;;;6.37;5.37;;;2.30;99.90;;;;;;5033566;28;20187;-69
2021/11/27 07:27:36;;;;;;;8.83;5.67;;;2.30;99.90;;;;;;5033393;28;20247;-70
2021/11/27 07:30:04;;;;;;;12.50;5.30;;;2.40;99.90;;;;;;5033595;28;20406;-70
2021/11/27 07:32:29;;;;;;;5.20;4.30;;;2.40;99.90;;;;;;5032271;28;20167;-70
2021/11/27 07:34:55;;;;;;;7.80;4.37;;;2.40;99.90;;;;;;5033302;28;20767;-71
2021/11/27 07:37:21;;;;;;;8.20;6.57;;;2.40;99.90;;;;;;5033948;28;20188;-70
2021/11/27 07:39:46;;;;;;;8.73;4.50;;;2.40;99.90;;;;;;5033474;28;20172;-71
2021/11/27 07:42:12;;;;;;;2.93;2.63;;;2.50;99.90;;;;;;5033650;28;20163;-71
2021/11/27 07:44:37;;;;;;;9.07;4.83;;;2.60;99.90;;;;;;5031977;28;20167;-71
2021/11/27 07:47:03;;;;;;;5.60;4.30;;;2.60;99.90;;;;;;5032392;28;20245;-70
2021/11/27 07:49:29;;;;;;;13.77;6.47;;;2.70;99.90;;;;;;5033222;28;20194;-70
2021/11/27 07:51:54;;;;;;;6.13;4.30;;;2.70;99.90;;;;;;5033230;28;20168;-70
2021/11/27 07:54:20;;;;;;;9.67;7.13;;;2.80;99.90;;;;;;5033074;28;20172;-70
2021/11/27 07:56:46;;;;;;;10.07;5.47;;;2.80;99.90;;;;;;5033104;28;20205;-71
2021/11/27 07:59:12;;;;;;;10.27;5.27;;;2.90;99.90;;;;;;5033223;28;20481;-71
2021/11/27 08:01:38;;;;;;;8.47;5.47;;;2.90;99.90;;;;;;5032948;28;20493;-72
2021/11/27 08:04:03;;;;;;;11.50;6.10;;;3.00;99.90;;;;;;5033066;28;20163;-70
2021/11/27 08:06:29;;;;;;;8.30;4.83;;;3.10;99.90;;;;;;5033152;28;20187;-70
2021/11/27 08:08:55;;;;;;;7.37;4.80;;;3.20;99.90;;;;;;5032983;28;20203;-69
2021/11/27 08:11:21;;;;;;;6.67;4.27;;;3.20;99.90;;;;;;5032971;28;20196;-70
2021/11/27 08:13:48;;;;;;;5.73;5.00;;;3.30;99.90;;;;;;5031539;28;20168;-70
2021/11/27 08:16:17;;;;;;;7.20;5.57;;;3.50;99.90;;;;;;5032620;28;20426;-70
2021/11/27 08:18:42;;;;;;;11.10;5.63;;;3.70;99.90;;;;;;5032405;28;20458;-71
2021/11/27 08:21:08;;;;;;;10.00;5.97;;;4.00;99.90;;;;;;5032537;28;20417;-69
2021/11/27 08:23:34;;;;;;;10.57;5.70;;;3.80;99.90;;;;;;5024492;28;20554;-69
2021/11/27 08:26:00;;;;;;;14.07;6.13;;;3.70;99.90;;;;;;5027175;28;20192;-69
2021/11/27 08:28:26;;;;;;;8.73;5.73;;;3.70;99.90;;;;;;5012871;28;20168;-71
2021/11/27 08:30:51;;;;;;;11.60;5.20;;;3.80;99.90;;;;;;5015475;28;20438;-71
2021/11/27 08:33:17;;;;;;;8.67;5.27;;;4.00;99.90;;;;;;5013085;28;20168;-71
2021/11/27 08:35:43;;;;;;;9.47;5.07;;;4.10;99.90;;;;;;5012855;28;20199;-70
2021/11/27 08:38:08;;;;;;;7.33;5.73;;;4.00;99.90;;;;;;5012813;28;20258;-69
2021/11/27 08:40:34;;;;;;;8.20;5.03;;;4.20;99.90;;;;;;5014238;28;20258;-69
2021/11/27 08:43:01;;;;;;;9.27;5.10;;;4.20;99.90;;;;;;5012500;28;20231;-69
2021/11/27 08:45:28;;;;;;;9.17;5.87;;;4.20;99.90;;;;;;5012603;28;20994;-69
2021/11/27 08:47:54;;;;;;;9.90;5.43;;;4.20;99.90;;;;;;5012684;28;20439;-72
2021/11/27 08:50:20;;;;;;;11.03;5.37;;;4.20;99.90;;;;;;5012661;28;20439;-70
2021/11/27 08:52:46;;;;;;;8.10;4.93;;;4.40;99.90;;;;;;5012295;28;20415;-70
2021/11/27 08:55:13;;;;;;;9.53;6.30;;;4.20;99.90;;;;;;5012144;28;20450;-70
2021/11/27 08:57:39;;;;;;;8.87;5.47;;;4.40;99.90;;;;;;5028922;28;20462;-70
2021/11/27 09:00:06;;;;;;;6.00;5.27;;;4.40;99.90;;;;;;5031737;28;20406;-70
2021/11/27 09:02:32;;;;;;;11.00;7.70;;;4.30;99.90;;;;;;5031665;28;20410;-69
2021/11/27 09:04:58;;;;;;;8.67;5.50;;;4.40;99.90;;;;;;5031740;28;20401;-70
2021/11/27 09:07:24;;;;;;;9.00;4.33;;;4.30;99.90;;;;;;5031825;28;20184;-70
2021/11/27 09:09:49;;;;;;;9.53;7.30;;;4.40;99.90;;;;;;5031829;28;20331;-70
2021/11/27 09:12:19;;;;;;;14.33;7.10;;;4.30;99.90;;;;;;5031689;28;20202;-69
2021/11/27 09:14:45;;;;;;;5.73;5.13;;;4.40;99.90;;;;;;5031715;28;20484;-70
2021/11/27 09:17:12;;;;;;;7.20;5.30;;;4.40;99.90;;;;;;5031642;28;20480;-70
2021/11/27 09:19:38;;;;;;;7.70;5.53;;;4.40;99.90;;;;;;5031481;28;20430;-71
2021/11/27 09:22:05;;;;;;;11.33;6.17;;;4.40;99.90;;;;;;5031531;28;20442;-71
2021/11/27 09:24:31;;;;;;;19.20;6.20;;;4.30;99.90;;;;;;5020102;28;20412;-70
2021/11/27 09:26:56;;;;;;;8.43;4.20;;;4.40;99.90;;;;;;5011810;28;20521;-71
2021/11/27 09:29:23;;;;;;;6.47;4.40;;;4.40;99.90;;;;;;5024778;28;20187;-69
2021/11/27 09:31:49;;;;;;;13.10;5.87;;;4.60;99.90;;;;;;5023147;28;20175;-69
2021/11/27 09:34:15;;;;;;;11.07;6.27;;;4.60;99.90;;;;;;5031559;28;20449;-71
2021/11/27 09:36:45;;;;;;;11.00;5.87;;;4.60;99.90;;;;;;5031599;28;20454;-71
2021/11/27 09:39:13;;;;;;;6.37;5.27;;;4.80;99.90;;;;;;5031669;28;20410;-69
2021/11/27 09:41:41;;;;;;;7.97;4.90;;;4.70;99.90;;;;;;5031662;28;20875;-71
2021/11/27 09:44:08;;;;;;;9.43;6.27;;;4.80;99.90;;;;;;5031622;28;20414;-70
2021/11/27 09:46:36;;;;;;;10.63;6.97;;;4.60;99.90;;;;;;5031402;28;20806;-69
2021/11/27 09:49:05;;;;;;;10.77;5.90;;;4.60;99.90;;;;;;5031613;28;20410;-70
2021/11/27 09:51:33;;;;;;;8.20;5.23;;;4.60;99.90;;;;;;5031380;28;20413;-69
2021/11/27 09:54:00;;;;;;;4.63;3.93;;;4.60;99.90;;;;;;5031567;28;20398;-70
2021/11/27 09:56:26;;;;;;;8.00;4.67;;;4.60;99.90;;;;;;5031141;28;20462;-70
2021/11/27 09:58:54;;;;;;;13.77;4.90;;;4.60;99.90;;;;;;5026830;28;20450;-70
2021/11/27 10:01:25;;;;;;;10.43;7.30;;;4.50;99.90;;;;;;5020571;28;20451;-70
2021/11/27 10:04:03;;;;;;;7.47;5.23;;;4.50;99.90;;;;;;5031573;28;20904;-69
2021/11/27 10:06:41;;;;;;;6.40;4.77;;;4.60;99.90;;;;;;5031197;28;20530;-69
2021/11/27 10:09:10;;;;;;;7.03;4.60;;;4.40;99.90;;;;;;5032699;28;20433;-69
2021/11/27 10:11:36;;;;;;;10.83;5.20;;;4.60;99.90;;;;;;5035242;28;20408;-71
2021/11/27 10:14:03;;;;;;;10.33;5.57;;;4.70;99.90;;;;;;5035001;28;20925;-69
2021/11/27 10:16:31;;;;;;;10.87;6.17;;;4.60;99.90;;;;;;5034890;28;20556;-73
2021/11/27 10:19:11;;;;;;;14.10;7.30;;;4.70;99.90;;;;;;5033501;28;20453;-71
2021/11/27 10:21:39;;;;;;;10.00;4.90;;;4.70;99.90;;;;;;5034705;28;20406;-72
2021/11/27 10:24:21;;;;;;;25.10;11.80;;;4.70;99.90;;;;;;5035258;28;20394;-73
2021/11/27 10:26:47;;;;;;;12.47;8.03;;;4.70;99.90;;;;;;5034689;28;20580;-72
2021/11/27 10:29:29;;;;;;;5.57;4.00;;;4.80;99.90;;;;;;5034679;28;20407;-71
2021/11/27 10:32:10;;;;;;;6.80;5.33;;;5.00;99.90;;;;;;5038164;28;20738;-71
2021/11/27 10:34:37;;;;;;;8.40;4.70;;;5.10;99.90;;;;;;5037142;28;20945;-70
2021/11/27 10:37:25;;;;;;;6.70;5.10;;;4.90;99.90;;;;;;5039051;28;20987;-70
2021/11/27 10:40:03;;;;;;;11.17;6.00;;;5.00;99.90;;;;;;5017419;28;20403;-70
2021/11/27 10:42:29;;;;;;;6.17;5.00;;;5.00;99.90;;;;;;5014162;28;20407;-69
2021/11/27 10:44:55;;;;;;;10.13;5.60;;;5.00;99.90;;;;;;5015791;28;20472;-71
2021/11/27 10:47:22;;;;;;;6.03;4.60;;;5.10;99.90;;;;;;5015520;28;20430;-70
2021/11/27 10:49:49;;;;;;;9.73;6.03;;;5.10;99.90;;;;;;5016774;28;20399;-70
2021/11/27 10:52:18;;;;;;;6.67;4.43;;;5.00;99.90;;;;;;5014990;28;20975;-71
2021/11/27 10:54:55;;;;;;;6.77;5.00;;;5.00;99.90;;;;;;5015949;28;20399;-70
2021/11/27 10:57:35;;;;;;;7.70;5.33;;;5.00;99.90;;;;;;5016622;28;20462;-70
2021/11/27 11:00:27;;;;;;;9.67;5.33;;;5.10;99.90;;;;;;5015917;28;20401;-70
2021/11/27 11:02:54;;;;;;;7.30;5.97;;;5.20;99.90;;;;;;5017806;28;20434;-69
2021/11/27 11:05:20;;;;;;;6.97;5.63;;;5.10;99.90;;;;;;5036297;28;20406;-71
2021/11/27 11:07:57;;;;;;;10.60;6.07;;;5.00;99.90;;;;;;5035661;28;20471;-69
2021/11/27 11:10:25;;;;;;;5.27;4.70;;;4.90;99.90;;;;;;5027156;28;20412;-70
2021/11/27 11:12:55;;;;;;;7.30;4.90;;;5.00;99.90;;;;;;5035377;28;20808;-70
2021/11/27 11:15:34;;;;;;;7.23;4.10;;;4.90;99.90;;;;;;5034622;28;20453;-70
2021/11/27 11:18:21;;;;;;;9.80;5.40;;;4.90;99.90;;;;;;5034100;28;20826;-70
2021/11/27 11:21:01;;;;;;;10.40;4.03;;;4.90;99.90;;;;;;5033952;28;20944;-70
2021/11/27 11:23:29;;;;;;;10.30;6.17;;;4.90;99.90;;;;;;5034321;28;20398;-70
2021/11/27 11:26:04;;;;;;;6.93;4.63;;;4.90;99.90;;;;;;5046219;28;20452;-70
2021/11/27 11:28:39;;;;;;;10.43;4.70;;;4.90;99.90;;;;;;5053983;28;20466;-69
2021/11/27 11:31:17;;;;;;;9.10;5.07;;;5.00;99.90;;;;;;5025794;28;20789;-69
2021/11/27 11:33:47;;;;;;;8.27;5.90;;;5.00;99.90;;;;;;5012720;28;20427;-69
2021/11/27 11:36:15;;;;;;;11.50;6.10;;;5.00;99.90;;;;;;5013508;28;20507;-71
2021/11/27 11:38:43;;;;;;;7.00;4.63;;;5.00;99.90;;;;;;5014046;28;21031;-70
2021/11/27 11:41:10;;;;;;;13.77;6.40;;;5.00;99.90;;;;;;5013432;28;20937;-70
2021/11/27 11:43:36;;;;;;;5.77;4.50;;;5.00;99.90;;;;;;5017676;28;20415;-71
2021/11/27 11:46:02;;;;;;;8.47;4.10;;;5.10;99.90;;;;;;5033087;28;20453;-70
2021/11/27 11:48:29;;;;;;;11.07;5.70;;;5.00;99.90;;;;;;5033390;28;20172;-70
2021/11/27 11:51:40;;;;;;;9.67;7.20;;;5.00;99.90;;;;;;5033270;28;20414;-71
2021/11/27 11:54:09;;;;;;;12.63;5.60;;;4.90;99.90;;;;;;5027723;28;20425;-69
2021/11/27 11:56:37;;;;;;;12.67;5.40;;;5.00;99.90;;;;;;5032943;28;20434;-71
2021/11/27 11:59:26;;;;;;;11.07;6.30;;;4.90;99.90;;;;;;5033461;28;20505;-70
2021/11/27 12:02:13;;;;;;;9.40;4.77;;;4.90;99.90;;;;;;5034188;28;20457;-70
2021/11/27 12:04:59;;;;;;;8.47;5.03;;;4.90;99.90;;;;;;5034663;28;20444;-70
2021/11/27 12:07:57;;;;;;;12.00;5.30;;;4.90;99.90;;;;;;5030957;28;20524;-69
2021/11/27 12:10:27;;;;;;;6.63;4.13;;;4.90;99.90;;;;;;4993321;28;20414;-70
2021/11/27 12:13:05;;;;;;;13.03;6.57;;;4.80;99.90;;;;;;5034421;28;20407;-72
2021/11/27 12:15:38;;;;;;;12.70;5.83;;;4.70;99.90;;;;;;5033903;28;20414;-70
2021/11/27 12:18:05;;;;;;;8.97;6.33;;;4.90;99.90;;;;;;5032690;28;20458;-71
2021/11/27 12:20:55;;;;;;;8.43;5.60;;;4.90;99.90;;;;;;5032936;28;20425;-71
2021/11/27 12:23:27;;;;;;;7.90;4.67;;;5.00;99.90;;;;;;5033188;28;20502;-69
2021/11/27 12:26:08;;;;;;;9.60;5.87;;;4.90;99.90;;;;;;5021616;28;20492;-70
2021/11/27 12:28:42;;;;;;;9.13;5.30;;;4.80;99.90;;;;;;5014015;28;20400;-70
2021/11/27 12:31:14;;;;;;;7.47;4.63;;;4.90;99.90;;;;;;5015287;28;20994;-71
2021/11/27 12:33:50;;;;;;;5.80;4.13;;;4.80;99.90;;;;;;5012984;28;20411;-71
2021/11/27 12:36:24;;;;;;;11.20;6.33;;;4.80;99.90;;;;;;5011419;28;20442;-70
2021/11/27 12:39:20;;;;;;;10.00;5.37;;;4.80;99.90;;;;;;5012706;28;20450;-70
2021/11/27 12:42:12;;;;;;;11.07;6.37;;;4.70;99.90;;;;;;5012943;28;20461;-71
2021/11/27 12:44:43;;;;;;;14.07;5.30;;;4.80;99.90;;;;;;5020330;28;20445;-70
2021/11/27 12:47:20;;;;;;;7.47;5.73;;;4.70;99.90;;;;;;5024917;28;20760;-70
2021/11/27 12:49:45;;;;;;;5.57;3.60;;;4.70;99.90;;;;;;5032804;28;20417;-70
2021/11/27 12:52:17;;;;;;;5.53;4.17;;;4.70;99.90;;;;;;5032808;28;20398;-72
2021/11/27 12:54:54;;;;;;;10.53;6.33;;;4.50;99.90;;;;;;5032263;28;20175;-72
2021/11/27 12:57:24;;;;;;;9.77;5.63;;;4.50;99.90;;;;;;5032717;28;20525;-72
2021/11/27 13:00:24;;;;;;;7.60;4.90;;;4.40;99.90;;;;;;5033149;28;20453;-71